Latest Observation

30 Stations

15 Minute Data | America/Los_Angeles
as of 9/6/26 11:58 AM PDT
Station Date Time Temp 5ft (°F) Temp 30ft (°F) Inversion (°F) RH (%) Dew Pt (°F) Wind Spd (mph) Wind Gust (mph) Solar Rad (W/m2) Daily Min Temp (°F) Daily Max Temp (°F) Daily Rain (In) Daily ETo (in)
Shandon ETo (SLO-1) 9/6/26 1145 77.0   2.3 76.3   2.6 -0.7 41   4 51.2   0.7 3.5   1.3 7.1   5.4 768   4 47.9   1.8 78.2   2.1 0.00 0.036   0.001
Creston Rd (SLO-2) 9/6/26 1145 77.9   0.7 75.9   1.5 -2.0 37   1 49.2   0.3 2.5   0.7 7.4   0.7 806   5 44.8   5.5 79.4   0.2 0.00 0.035   0.003
NE Paso Robles (SLO-3) 9/6/26 1145 78.9   1.9 77.2   1.7 -1.7 37   2 50.6   0.5 2.2   2.9 7.1   2.7 804   5 45.3   6.0 80.0   2.0 0.00 0.033   0.002
Cross Canyon Rd (SLO-4) 9/6/26 1145 77.4   1.7 75.8   2.2 -1.6 38   1 49.6   1.0 3.8   0.3 8.4   0.3 798   7 47.8   5.1 78.2   2.4 0.00 0.038   0.001
Willow Creek (SLO-5) 9/6/26 1145 76.1   0.3 76.2   0.4 0.1 39   3 49.6   1.4 3.1   1.0 10.1   1.3 826   9 42.9   4.8 77.1   0.4 0.00 0.038   0.001
Shell Creek Rd (SLO-6) 9/6/26 1145 84.2   1.2 83.0   0.7 -1.2 32   0 50.8   0.9 4.7   0.7 10.5   2.0 814   2 43.4   2.1 86.1   2.0 0.00 0.041   0.005
South Shandon (SLO-7) 9/6/26 1145 79.2   2.3 77.6   2.8 -1.6 37   3 50.6   0.5 4.8   0.5 11.1   1.0 790   6 45.3   2.5 80.3   2.8 0.00 0.036   0.001
South Creston (SLO-8) 9/6/26 1145 78.9   2.4 78.3   1.5 -0.6 36   0 49.5   2.5 1.8   3.1 6.4   4.0 800   7 43.8   3.3 79.5   2.6 0.00 0.035   0.001
Pozo Rd (SLO-9) 9/6/26 1145 78.4   0.2 76.8   0.7 -1.6 37   8 50.2   5.3 2.8   6.6 9.8   4.0 750   5 37.5   3.8 79.1   0.9 0.00 0.033   0.002
Experimental Station (SLO-10) 9/6/26 1145 77.8   1.3 76.3   1.7 -1.5 35   0 47.8   1.1 3.1   0.1 7.4   0.3 788   6 47.2   5.1 79.6   1.3 0.00 0.037   0.001
Vineyard Drive (SLO-11) 9/6/26 1145 78.4   1.2 76.4   0.9 -1.9 38   3 50.9   0.9 4.3   0.2 10.1   2.3 795   10 40.1   7.1 79.5   0.9 0.00 0.039   0.001
Von Dollen Road (SLO-12) 9/6/26 1145 76.6   2.5 75.0   2.7 -1.6 45   4 53.5   0.7 4.1   0.3 8.8   1.0 794   8 49.1   4.2 77.4   2.1 0.00 0.035   0.002
Templeton Gap West (SLO-13) 9/6/26 1145 79.5   1.1 75.9   1.8 -3.5 36   1 49.9   1.7 2.9   0.1 7.1   1.0 783   6 41.4   5.0 80.1   1.2 0.00 0.035   0.002
Orcutt Road (SLO-14) 9/6/26 1145 76.8   0.3 75.0   0.3 -1.8 51   5 57.2   2.3 6.0   1.3 9.8   0.7 780   2 46.4   3.2 77.3   0.2 0.00 0.034   0.000
Tiffany Ranch Rd (SLO-15) 9/6/26 1145 77.8   1.8 74.4   1.6 -3.3 48   5 56.3   4.2 0.0   0.0 0.0   0.0 824   2 45.2   7.8 79.7   0.8 0.00 0.039   0.000
Chimney Rock Rd (SLO-16) 9/6/26 0830 59.8   5.5 58.3   5.5 -1.5 60   5 46.1   3.1 0.0   0.0 0.0   0.0 304   11 45.5   5.9 62.3   4.4 0.00 0.001   0.000
Nipomo Mesa (SLO-17) 9/6/26 1145 79.9   1.2 76.1   0.1 -3.8 46   8 57.2   3.5 3.1   1.0 6.4   2.0 794   3 46.7   11.9 81.3   1.5 0.00 0.037   0.000
Morro Creek (SLO-18) 9/6/26 1145 69.6   0.2 67.8   0.4 -1.9 68   3 58.7   1.1 4.4   0.7 9.1   1.3 783   8 47.9   2.8 74.3   2.2 0.00 0.038   0.004
Paso Robles Airport ETo 9/6/26 1145 76.3   0.5 76.3   0.0 0.0 41   1 50.8   1.0 2.1   0.6 6.1   1.3 800   8 45.3   6.6 76.8   0.8 0.00 0.035   0.000
West Shandon (SLO-20) 9/6/26 1145 80.4   1.4 79.4   1.2 -1.1 36   3 51.1   1.0 2.8   2.5 6.4   5.4 765   7 47.1   2.3 81.2   1.3 0.00 0.037   0.000
West San Miguel (SLO-21) 9/6/26 1145 77.2   1.4 - - 32   0 44.9   1.1 4.3   0.5 8.8   0.0 789   8 45.4   4.9 78.4   0.9 0.00 0.036   0.000
Adelaida Road (SLO-22) 9/6/26 1145 75.9   0.3 75.1   0.6 -0.8 33   4 44.6   2.7 3.1   1.9 10.5   1.1 809   8 42.6   6.9 76.8   0.7 0.00 0.040   0.001
East Whitley Gardens (SLO-23) 9/6/26 1145 76.1   5.0 75.5   3.9 -0.6 34   6 45.5   0.8 2.8   1.2 7.1   2.2 833   10 48.7   3.7 76.8   5.1 0.00 0.039   0.002
Estrella Road (SLO-24) 9/6/26 1145 76.7   2.3 - - 34   3 46.4   0.2 1.9   1.2 6.0   0.0 838   8 45.7   6.0 77.4   2.4 0.00 0.037   0.001
Camatta Creek (SLO-25) 9/6/26 1145 78.4   2.0 - - 35   5 48.8   2.0 2.9   1.1 7.7   0.6 786   0 46.9   1.2 78.8   2.2 0.00 0.036   0.001
East-Shandon (SLO-26) 9/6/26 1145 79.0   0.9 - - 32   2 46.9   1.0 3.5   0.1 8.2   1.7 816   4 44.0   3.1 80.1   1.1 0.00 0.037   0.001
Templeton East (SLO-27) 9/6/26 1145 76.3   2.5 - - 34   0 46.3   2.4 2.2   1.8 5.4   3.4 816   5 44.0   5.9 77.3   3.0 0.00 0.035   0.001
Ground Squirrel Hollow (SLO-28) 9/6/26 1145 76.2   3.0 - - 35   4 46.3   0.2 2.5   0.9 7.1   1.7 817 50.8   1.7 77.0   3.2 0.00 0.035   0.003
East Paso Robles (SLO-29) 9/6/26 1145 76.5   1.5 - - 33   1 45.6   0.9 1.9   1.3 5.4   1.1 811   9 48.4   4.1 77.0   2.1 0.00 0.036   0.002
Max     84.2 83.0 0.1 68 58.7 6.0 11.1 838 50.8 86.1 0.00 0.041
Avg     77.6 76.2 -1.6 38 50.0 3.1 7.7 799 - - - -
Min     69.6 67.8 -3.8 32 44.6 0.0 0.0 750 37.5 74.3 0.00 0.033